sensor_id;sensor_type;location;lat;lon;timestamp;P1;durP1;ratioP1;P2;durP2;ratioP2
73697;SDS011;62004;42.566;23.164;2023-02-16T00:00:44;606.15;;;571.88;;
73697;SDS011;62004;42.566;23.164;2023-02-16T00:03:13;601.03;;;567.65;;
73697;SDS011;62004;42.566;23.164;2023-02-16T00:05:38;612.75;;;577.90;;
73697;SDS011;62004;42.566;23.164;2023-02-16T00:08:04;599.60;;;566.00;;
73697;SDS011;62004;42.566;23.164;2023-02-16T00:10:30;609.72;;;575.85;;
73697;SDS011;62004;42.566;23.164;2023-02-16T00:12:56;620.70;;;585.60;;
73697;SDS011;62004;42.566;23.164;2023-02-16T00:15:40;598.85;;;565.42;;
73697;SDS011;62004;42.566;23.164;2023-02-16T00:18:18;605.17;;;571.67;;
73697;SDS011;62004;42.566;23.164;2023-02-16T00:20:44;601.78;;;568.35;;
73697;SDS011;62004;42.566;23.164;2023-02-16T00:23:09;623.95;;;588.33;;
73697;SDS011;62004;42.566;23.164;2023-02-16T00:25:34;621.00;;;585.63;;
73697;SDS011;62004;42.566;23.164;2023-02-16T00:28:01;603.95;;;569.78;;
73697;SDS011;62004;42.566;23.164;2023-02-16T00:30:27;599.17;;;565.30;;
73697;SDS011;62004;42.566;23.164;2023-02-16T00:32:52;605.63;;;571.13;;
73697;SDS011;62004;42.566;23.164;2023-02-16T00:35:18;627.93;;;592.43;;
73697;SDS011;62004;42.566;23.164;2023-02-16T00:37:47;626.90;;;591.33;;
73697;SDS011;62004;42.566;23.164;2023-02-16T00:40:13;595.20;;;562.35;;
73697;SDS011;62004;42.566;23.164;2023-02-16T00:42:39;600.28;;;566.83;;
73697;SDS011;62004;42.566;23.164;2023-02-16T00:45:05;605.67;;;571.67;;
73697;SDS011;62004;42.566;23.164;2023-02-16T00:47:38;613.00;;;578.90;;
73697;SDS011;62004;42.566;23.164;2023-02-16T00:50:23;608.97;;;575.28;;
73697;SDS011;62004;42.566;23.164;2023-02-16T00:52:50;587.92;;;555.42;;
73697;SDS011;62004;42.566;23.164;2023-02-16T00:55:19;605.35;;;571.70;;
73697;SDS011;62004;42.566;23.164;2023-02-16T00:57:49;601.45;;;568.10;;
73697;SDS011;62004;42.566;23.164;2023-02-16T01:00:28;614.15;;;579.92;;
73697;SDS011;62004;42.566;23.164;2023-02-16T01:02:56;626.30;;;591.45;;
73697;SDS011;62004;42.566;23.164;2023-02-16T01:05:22;597.95;;;564.90;;
73697;SDS011;62004;42.566;23.164;2023-02-16T01:07:47;611.07;;;576.90;;
73697;SDS011;62004;42.566;23.164;2023-02-16T01:10:31;601.65;;;568.35;;
73697;SDS011;62004;42.566;23.164;2023-02-16T01:13:15;611.03;;;577.40;;
73697;SDS011;62004;42.566;23.164;2023-02-16T01:15:41;617.05;;;582.38;;
73697;SDS011;62004;42.566;23.164;2023-02-16T01:18:07;619.42;;;584.35;;
73697;SDS011;62004;42.566;23.164;2023-02-16T01:20:33;614.30;;;579.10;;
73697;SDS011;62004;42.566;23.164;2023-02-16T01:23:00;591.58;;;558.33;;
73697;SDS011;62004;42.566;23.164;2023-02-16T01:25:25;613.72;;;578.88;;
73697;SDS011;62004;42.566;23.164;2023-02-16T01:27:51;608.33;;;574.13;;
73697;SDS011;62004;42.566;23.164;2023-02-16T01:30:17;599.67;;;566.30;;
73697;SDS011;62004;42.566;23.164;2023-02-16T01:32:43;611.40;;;577.17;;
73697;SDS011;62004;42.566;23.164;2023-02-16T01:35:13;616.50;;;581.58;;
73697;SDS011;62004;42.566;23.164;2023-02-16T01:37:38;617.20;;;582.47;;
73697;SDS011;62004;42.566;23.164;2023-02-16T01:40:03;613.07;;;579.03;;
73697;SDS011;62004;42.566;23.164;2023-02-16T01:44:58;614.28;;;580.00;;
73697;SDS011;62004;42.566;23.164;2023-02-16T01:50:06;600.60;;;567.70;;
73697;SDS011;62004;42.566;23.164;2023-02-16T01:52:37;603.50;;;570.58;;
73697;SDS011;62004;42.566;23.164;2023-02-16T01:55:13;601.85;;;568.90;;
73697;SDS011;62004;42.566;23.164;2023-02-16T01:57:42;614.47;;;580.38;;
73697;SDS011;62004;42.566;23.164;2023-02-16T02:02:36;598.75;;;565.63;;
73697;SDS011;62004;42.566;23.164;2023-02-16T02:05:07;593.92;;;561.15;;
73697;SDS011;62004;42.566;23.164;2023-02-16T02:15:31;598.30;;;565.70;;
73697;SDS011;62004;42.566;23.164;2023-02-16T02:17:58;598.97;;;565.95;;
73697;SDS011;62004;42.566;23.164;2023-02-16T02:32:12;589.65;;;557.78;;
73697;SDS011;62004;42.566;23.164;2023-02-16T02:34:21;613.63;;;580.70;;
73697;SDS011;62004;42.566;23.164;2023-02-16T02:36:57;600.25;;;568.20;;
73697;SDS011;62004;42.566;23.164;2023-02-16T02:39:45;592.53;;;560.33;;
73697;SDS011;62004;42.566;23.164;2023-02-16T02:42:19;588.08;;;556.55;;
73697;SDS011;62004;42.566;23.164;2023-02-16T02:44:49;590.67;;;559.03;;
73697;SDS011;62004;42.566;23.164;2023-02-16T02:47:16;622.53;;;588.88;;
73697;SDS011;62004;42.566;23.164;2023-02-16T02:49:48;592.80;;;561.00;;
73697;SDS011;62004;42.566;23.164;2023-02-16T02:52:13;607.38;;;574.83;;
73697;SDS011;62004;42.566;23.164;2023-02-16T02:54:38;623.97;;;590.17;;
73697;SDS011;62004;42.566;23.164;2023-02-16T03:02:52;599.03;;;566.85;;
73697;SDS011;62004;42.566;23.164;2023-02-16T03:05:19;599.88;;;567.58;;
73697;SDS011;62004;42.566;23.164;2023-02-16T03:07:47;628.80;;;594.67;;
73697;SDS011;62004;42.566;23.164;2023-02-16T03:10:14;602.47;;;570.08;;
73697;SDS011;62004;42.566;23.164;2023-02-16T03:12:59;592.78;;;560.97;;
73697;SDS011;62004;42.566;23.164;2023-02-16T03:15:25;606.90;;;574.58;;
73697;SDS011;62004;42.566;23.164;2023-02-16T03:17:52;610.78;;;577.67;;
73697;SDS011;62004;42.566;23.164;2023-02-16T03:20:36;605.35;;;572.90;;
73697;SDS011;62004;42.566;23.164;2023-02-16T03:23:20;608.25;;;575.50;;
73697;SDS011;62004;42.566;23.164;2023-02-16T03:26:04;603.10;;;570.95;;
73697;SDS011;62004;42.566;23.164;2023-02-16T03:28:48;601.80;;;569.50;;
73697;SDS011;62004;42.566;23.164;2023-02-16T03:31:34;603.30;;;570.50;;
73697;SDS011;62004;42.566;23.164;2023-02-16T03:34:02;631.08;;;596.75;;
73697;SDS011;62004;42.566;23.164;2023-02-16T03:36:28;625.33;;;591.05;;
73697;SDS011;62004;42.566;23.164;2023-02-16T03:38:54;605.30;;;571.90;;
73697;SDS011;62004;42.566;23.164;2023-02-16T03:41:19;600.88;;;568.22;;
73697;SDS011;62004;42.566;23.164;2023-02-16T03:43:45;604.67;;;571.77;;
73697;SDS011;62004;42.566;23.164;2023-02-16T03:46:10;599.53;;;566.73;;
73697;SDS011;62004;42.566;23.164;2023-02-16T03:48:35;635.33;;;600.50;;
73697;SDS011;62004;42.566;23.164;2023-02-16T03:51:00;616.87;;;583.37;;
73697;SDS011;62004;42.566;23.164;2023-02-16T03:53:26;598.90;;;566.37;;
73697;SDS011;62004;42.566;23.164;2023-02-16T03:55:51;606.67;;;573.83;;
73697;SDS011;62004;42.566;23.164;2023-02-16T03:58:18;619.67;;;585.83;;
73697;SDS011;62004;42.566;23.164;2023-02-16T04:00:43;616.85;;;583.28;;
73697;SDS011;62004;42.566;23.164;2023-02-16T04:03:09;597.75;;;565.05;;
73697;SDS011;62004;42.566;23.164;2023-02-16T04:05:34;607.40;;;574.38;;
73697;SDS011;62004;42.566;23.164;2023-02-16T04:07:59;619.63;;;585.95;;
73697;SDS011;62004;42.566;23.164;2023-02-16T04:10:25;627.58;;;593.20;;
73697;SDS011;62004;42.566;23.164;2023-02-16T04:12:50;607.17;;;574.27;;
73697;SDS011;62004;42.566;23.164;2023-02-16T04:15:20;607.17;;;574.50;;
73697;SDS011;62004;42.566;23.164;2023-02-16T04:17:45;600.83;;;568.42;;
73697;SDS011;62004;42.566;23.164;2023-02-16T04:20:12;619.40;;;585.67;;
73697;SDS011;62004;42.566;23.164;2023-02-16T04:22:37;617.42;;;583.75;;
73697;SDS011;62004;42.566;23.164;2023-02-16T04:25:03;609.83;;;576.90;;
73697;SDS011;62004;42.566;23.164;2023-02-16T04:27:28;607.78;;;574.33;;
73697;SDS011;62004;42.566;23.164;2023-02-16T04:29:53;599.93;;;567.70;;
73697;SDS011;62004;42.566;23.164;2023-02-16T04:32:19;627.57;;;593.50;;
73697;SDS011;62004;42.566;23.164;2023-02-16T04:34:44;617.77;;;584.37;;
73697;SDS011;62004;42.566;23.164;2023-02-16T04:37:09;605.03;;;572.43;;
73697;SDS011;62004;42.566;23.164;2023-02-16T04:39:35;599.63;;;567.03;;
73697;SDS011;62004;42.566;23.164;2023-02-16T04:42:00;610.67;;;577.30;;
73697;SDS011;62004;42.566;23.164;2023-02-16T04:44:25;611.13;;;578.23;;
73697;SDS011;62004;42.566;23.164;2023-02-16T04:46:50;624.53;;;590.50;;
73697;SDS011;62004;42.566;23.164;2023-02-16T04:49:16;610.93;;;577.77;;
73697;SDS011;62004;42.566;23.164;2023-02-16T04:51:41;618.50;;;584.77;;
73697;SDS011;62004;42.566;23.164;2023-02-16T04:54:06;614.87;;;581.20;;
73697;SDS011;62004;42.566;23.164;2023-02-16T04:56:32;609.17;;;575.42;;
73697;SDS011;62004;42.566;23.164;2023-02-16T04:58:57;610.58;;;577.22;;
73697;SDS011;62004;42.566;23.164;2023-02-16T05:01:23;625.83;;;591.53;;
73697;SDS011;62004;42.566;23.164;2023-02-16T05:03:49;628.40;;;594.17;;
73697;SDS011;62004;42.566;23.164;2023-02-16T05:06:14;617.30;;;584.03;;
73697;SDS011;62004;42.566;23.164;2023-02-16T05:08:40;599.37;;;566.87;;
73697;SDS011;62004;42.566;23.164;2023-02-16T05:11:05;631.47;;;596.97;;
73697;SDS011;62004;42.566;23.164;2023-02-16T05:13:49;617.08;;;583.53;;
73697;SDS011;62004;42.566;23.164;2023-02-16T05:16:33;620.20;;;586.45;;
73697;SDS011;62004;42.566;23.164;2023-02-16T05:18:58;622.67;;;589.37;;
73697;SDS011;62004;42.566;23.164;2023-02-16T05:21:23;628.30;;;593.95;;
73697;SDS011;62004;42.566;23.164;2023-02-16T05:23:54;615.22;;;581.78;;
73697;SDS011;62004;42.566;23.164;2023-02-16T05:26:19;620.77;;;587.07;;
73697;SDS011;62004;42.566;23.164;2023-02-16T05:28:45;635.60;;;600.70;;
73697;SDS011;62004;42.566;23.164;2023-02-16T05:31:10;611.27;;;578.00;;
73697;SDS011;62004;42.566;23.164;2023-02-16T05:33:35;620.53;;;586.57;;
73697;SDS011;62004;42.566;23.164;2023-02-16T05:36:00;607.13;;;574.10;;
73697;SDS011;62004;42.566;23.164;2023-02-16T05:38:26;614.80;;;581.53;;
73697;SDS011;62004;42.566;23.164;2023-02-16T05:40:51;616.87;;;583.20;;
73697;SDS011;62004;42.566;23.164;2023-02-16T05:43:16;620.97;;;586.97;;
73697;SDS011;62004;42.566;23.164;2023-02-16T05:45:43;617.35;;;583.95;;
73697;SDS011;62004;42.566;23.164;2023-02-16T05:48:08;606.57;;;573.40;;
73697;SDS011;62004;42.566;23.164;2023-02-16T05:50:33;622.37;;;588.40;;
73697;SDS011;62004;42.566;23.164;2023-02-16T05:52:58;635.83;;;600.57;;
73697;SDS011;62004;42.566;23.164;2023-02-16T05:55:24;638.83;;;603.53;;
73697;SDS011;62004;42.566;23.164;2023-02-16T05:57:49;617.73;;;583.60;;
73697;SDS011;62004;42.566;23.164;2023-02-16T06:00:14;632.63;;;597.33;;
73697;SDS011;62004;42.566;23.164;2023-02-16T06:02:40;639.55;;;602.90;;
73697;SDS011;62004;42.566;23.164;2023-02-16T06:05:05;600.47;;;565.80;;
73697;SDS011;62004;42.566;23.164;2023-02-16T06:07:30;596.03;;;560.47;;
73697;SDS011;62004;42.566;23.164;2023-02-16T06:09:56;581.60;;;545.80;;
73697;SDS011;62004;42.566;23.164;2023-02-16T06:12:21;584.03;;;546.92;;
73697;SDS011;62004;42.566;23.164;2023-02-16T06:14:47;563.50;;;527.97;;
73697;SDS011;62004;42.566;23.164;2023-02-16T06:17:13;569.50;;;532.63;;
73697;SDS011;62004;42.566;23.164;2023-02-16T06:19:38;572.80;;;535.63;;
73697;SDS011;62004;42.566;23.164;2023-02-16T06:22:03;574.47;;;535.97;;
73697;SDS011;62004;42.566;23.164;2023-02-16T06:24:28;583.93;;;544.27;;
73697;SDS011;62004;42.566;23.164;2023-02-16T06:26:54;578.70;;;538.53;;
73697;SDS011;62004;42.566;23.164;2023-02-16T06:29:19;577.10;;;536.88;;
73697;SDS011;62004;42.566;23.164;2023-02-16T06:31:44;584.13;;;542.20;;
73697;SDS011;62004;42.566;23.164;2023-02-16T06:34:10;584.23;;;542.23;;
73697;SDS011;62004;42.566;23.164;2023-02-16T06:36:35;583.90;;;539.23;;
73697;SDS011;62004;42.566;23.164;2023-02-16T06:39:00;568.07;;;523.57;;
73697;SDS011;62004;42.566;23.164;2023-02-16T06:41:25;576.83;;;529.90;;
73697;SDS011;62004;42.566;23.164;2023-02-16T06:44:04;591.30;;;543.15;;
73697;SDS011;62004;42.566;23.164;2023-02-16T06:46:30;587.47;;;539.58;;
73697;SDS011;62004;42.566;23.164;2023-02-16T06:48:55;596.35;;;547.03;;
73697;SDS011;62004;42.566;23.164;2023-02-16T06:51:20;601.80;;;549.77;;
73697;SDS011;62004;42.566;23.164;2023-02-16T06:53:46;587.88;;;534.10;;
73697;SDS011;62004;42.566;23.164;2023-02-16T06:56:11;595.97;;;539.58;;
73697;SDS011;62004;42.566;23.164;2023-02-16T06:58:37;590.20;;;531.45;;
73697;SDS011;62004;42.566;23.164;2023-02-16T07:01:02;597.37;;;535.93;;
73697;SDS011;62004;42.566;23.164;2023-02-16T07:03:27;602.23;;;537.23;;
73697;SDS011;62004;42.566;23.164;2023-02-16T07:05:52;612.57;;;538.60;;
73697;SDS011;62004;42.566;23.164;2023-02-16T07:08:18;639.00;;;549.35;;
73697;SDS011;62004;42.566;23.164;2023-02-16T07:10:44;663.43;;;549.67;;
73697;SDS011;62004;42.566;23.164;2023-02-16T07:13:09;672.65;;;552.33;;
73697;SDS011;62004;42.566;23.164;2023-02-16T07:15:35;687.40;;;552.10;;
73697;SDS011;62004;42.566;23.164;2023-02-16T07:18:00;679.63;;;544.43;;
73697;SDS011;62004;42.566;23.164;2023-02-16T07:20:25;665.87;;;535.23;;
73697;SDS011;62004;42.566;23.164;2023-02-16T07:22:51;671.30;;;525.15;;
73697;SDS011;62004;42.566;23.164;2023-02-16T07:25:17;690.43;;;521.97;;
73697;SDS011;62004;42.566;23.164;2023-02-16T07:27:42;702.30;;;519.07;;
73697;SDS011;62004;42.566;23.164;2023-02-16T07:30:07;727.80;;;520.63;;
73697;SDS011;62004;42.566;23.164;2023-02-16T07:32:33;750.53;;;523.15;;
73697;SDS011;62004;42.566;23.164;2023-02-16T07:34:58;742.88;;;518.80;;
73697;SDS011;62004;42.566;23.164;2023-02-16T07:37:23;765.15;;;530.28;;
73697;SDS011;62004;42.566;23.164;2023-02-16T07:39:49;773.25;;;535.65;;
73697;SDS011;62004;42.566;23.164;2023-02-16T07:42:14;786.93;;;534.43;;
73697;SDS011;62004;42.566;23.164;2023-02-16T07:44:42;809.13;;;528.20;;
73697;SDS011;62004;42.566;23.164;2023-02-16T07:47:08;801.60;;;522.90;;
73697;SDS011;62004;42.566;23.164;2023-02-16T07:49:33;800.10;;;527.90;;
73697;SDS011;62004;42.566;23.164;2023-02-16T07:51:58;815.53;;;523.40;;
73697;SDS011;62004;42.566;23.164;2023-02-16T07:54:23;857.20;;;546.17;;
73697;SDS011;62004;42.566;23.164;2023-02-16T07:56:49;833.27;;;537.80;;
73697;SDS011;62004;42.566;23.164;2023-02-16T07:59:14;829.70;;;528.67;;
73697;SDS011;62004;42.566;23.164;2023-02-16T08:01:40;829.58;;;525.88;;
73697;SDS011;62004;42.566;23.164;2023-02-16T08:04:06;818.58;;;512.95;;
73697;SDS011;62004;42.566;23.164;2023-02-16T08:06:33;811.95;;;514.83;;
73697;SDS011;62004;42.566;23.164;2023-02-16T08:08:58;813.97;;;513.25;;
73697;SDS011;62004;42.566;23.164;2023-02-16T08:11:24;797.40;;;510.07;;
73697;SDS011;62004;42.566;23.164;2023-02-16T08:13:50;765.80;;;503.35;;
73697;SDS011;62004;42.566;23.164;2023-02-16T08:16:17;723.33;;;498.63;;
73697;SDS011;62004;42.566;23.164;2023-02-16T08:18:42;677.60;;;484.73;;
73697;SDS011;62004;42.566;23.164;2023-02-16T08:21:08;641.90;;;476.23;;
73697;SDS011;62004;42.566;23.164;2023-02-16T08:23:45;648.65;;;485.58;;
73697;SDS011;62004;42.566;23.164;2023-02-16T08:26:11;619.33;;;474.65;;
73697;SDS011;62004;42.566;23.164;2023-02-16T08:28:37;609.08;;;480.02;;
73697;SDS011;62004;42.566;23.164;2023-02-16T08:31:09;598.42;;;471.08;;
73697;SDS011;62004;42.566;23.164;2023-02-16T08:33:35;596.90;;;474.47;;
73697;SDS011;62004;42.566;23.164;2023-02-16T08:36:00;588.22;;;469.90;;
73697;SDS011;62004;42.566;23.164;2023-02-16T08:38:27;583.10;;;468.38;;
73697;SDS011;62004;42.566;23.164;2023-02-16T08:40:52;588.63;;;473.57;;
73697;SDS011;62004;42.566;23.164;2023-02-16T08:43:17;581.53;;;469.83;;
73697;SDS011;62004;42.566;23.164;2023-02-16T08:45:43;574.60;;;467.57;;
73697;SDS011;62004;42.566;23.164;2023-02-16T08:48:09;573.30;;;470.15;;
73697;SDS011;62004;42.566;23.164;2023-02-16T08:50:35;585.05;;;470.00;;
73697;SDS011;62004;42.566;23.164;2023-02-16T08:53:01;582.07;;;472.43;;
73697;SDS011;62004;42.566;23.164;2023-02-16T08:55:26;572.03;;;471.50;;
73697;SDS011;62004;42.566;23.164;2023-02-16T08:57:51;591.60;;;492.75;;
73697;SDS011;62004;42.566;23.164;2023-02-16T09:00:17;605.07;;;497.40;;
73697;SDS011;62004;42.566;23.164;2023-02-16T09:03:02;607.00;;;508.92;;
73697;SDS011;62004;42.566;23.164;2023-02-16T09:05:28;609.05;;;513.17;;
73697;SDS011;62004;42.566;23.164;2023-02-16T09:07:53;608.92;;;511.25;;
73697;SDS011;62004;42.566;23.164;2023-02-16T09:10:19;632.87;;;517.30;;
73697;SDS011;62004;42.566;23.164;2023-02-16T09:12:46;640.05;;;516.78;;
73697;SDS011;62004;42.566;23.164;2023-02-16T09:15:14;621.45;;;501.65;;
73697;SDS011;62004;42.566;23.164;2023-02-16T09:17:40;627.63;;;509.95;;
73697;SDS011;62004;42.566;23.164;2023-02-16T09:20:06;630.88;;;507.23;;
73697;SDS011;62004;42.566;23.164;2023-02-16T09:22:32;633.75;;;505.75;;
73697;SDS011;62004;42.566;23.164;2023-02-16T09:24:57;621.43;;;502.97;;
73697;SDS011;62004;42.566;23.164;2023-02-16T09:30:12;638.30;;;519.03;;
73697;SDS011;62004;42.566;23.164;2023-02-16T09:32:38;633.00;;;524.30;;
73697;SDS011;62004;42.566;23.164;2023-02-16T09:35:03;646.45;;;535.58;;
73697;SDS011;62004;42.566;23.164;2023-02-16T09:37:29;645.83;;;538.53;;
73697;SDS011;62004;42.566;23.164;2023-02-16T09:39:54;648.80;;;547.30;;
73697;SDS011;62004;42.566;23.164;2023-02-16T09:42:27;641.60;;;554.40;;
73697;SDS011;62004;42.566;23.164;2023-02-16T09:45:04;628.40;;;557.45;;
73697;SDS011;62004;42.566;23.164;2023-02-16T09:47:32;636.53;;;565.17;;
73697;SDS011;62004;42.566;23.164;2023-02-16T09:49:58;637.97;;;567.58;;
73697;SDS011;62004;42.566;23.164;2023-02-16T09:52:35;632.50;;;564.33;;
73697;SDS011;62004;42.566;23.164;2023-02-16T09:57:37;622.93;;;558.07;;
73697;SDS011;62004;42.566;23.164;2023-02-16T10:00:14;627.42;;;561.42;;
73697;SDS011;62004;42.566;23.164;2023-02-16T10:02:51;631.35;;;565.55;;
73697;SDS011;62004;42.566;23.164;2023-02-16T10:10:20;627.00;;;562.65;;
73697;SDS011;62004;42.566;23.164;2023-02-16T10:12:47;631.33;;;567.50;;
73697;SDS011;62004;42.566;23.164;2023-02-16T10:15:15;635.17;;;569.65;;
73697;SDS011;62004;42.566;23.164;2023-02-16T10:17:50;638.15;;;572.50;;
73697;SDS011;62004;42.566;23.164;2023-02-16T10:20:23;641.28;;;575.33;;
73697;SDS011;62004;42.566;23.164;2023-02-16T10:25:16;633.40;;;568.17;;
73697;SDS011;62004;42.566;23.164;2023-02-16T10:27:44;626.28;;;561.85;;
73697;SDS011;62004;42.566;23.164;2023-02-16T10:30:13;624.72;;;559.97;;
73697;SDS011;62004;42.566;23.164;2023-02-16T10:32:42;625.58;;;561.92;;
73697;SDS011;62004;42.566;23.164;2023-02-16T10:35:13;637.55;;;572.95;;
73697;SDS011;62004;42.566;23.164;2023-02-16T10:43:24;634.38;;;569.78;;
73697;SDS011;62004;42.566;23.164;2023-02-16T10:45:50;634.85;;;570.67;;
73697;SDS011;62004;42.566;23.164;2023-02-16T10:48:16;625.92;;;562.90;;
73697;SDS011;62004;42.566;23.164;2023-02-16T10:53:34;633.40;;;569.42;;
73697;SDS011;62004;42.566;23.164;2023-02-16T10:56:00;633.78;;;568.45;;
73697;SDS011;62004;42.566;23.164;2023-02-16T10:58:43;628.10;;;564.05;;
73697;SDS011;62004;42.566;23.164;2023-02-16T11:01:17;630.25;;;565.92;;
73697;SDS011;62004;42.566;23.164;2023-02-16T11:03:45;623.83;;;560.22;;
73697;SDS011;62004;42.566;23.164;2023-02-16T11:06:18;625.35;;;562.15;;
73697;SDS011;62004;42.566;23.164;2023-02-16T11:08:48;625.95;;;562.03;;
73697;SDS011;62004;42.566;23.164;2023-02-16T11:11:13;625.47;;;562.78;;
73697;SDS011;62004;42.566;23.164;2023-02-16T11:13:40;625.55;;;562.50;;
73697;SDS011;62004;42.566;23.164;2023-02-16T11:16:11;622.03;;;559.38;;
73697;SDS011;62004;42.566;23.164;2023-02-16T11:18:44;626.42;;;563.30;;
73697;SDS011;62004;42.566;23.164;2023-02-16T11:21:10;630.17;;;567.55;;
73697;SDS011;62004;42.566;23.164;2023-02-16T11:23:42;630.78;;;566.85;;
73697;SDS011;62004;42.566;23.164;2023-02-16T11:29:00;628.27;;;565.00;;
73697;SDS011;62004;42.566;23.164;2023-02-16T11:31:38;620.72;;;558.13;;
73697;SDS011;62004;42.566;23.164;2023-02-16T11:36:37;625.85;;;562.63;;
73697;SDS011;62004;42.566;23.164;2023-02-16T11:39:05;629.80;;;565.05;;
73697;SDS011;62004;42.566;23.164;2023-02-16T11:41:33;622.58;;;559.67;;
73697;SDS011;62004;42.566;23.164;2023-02-16T11:43:59;624.17;;;559.92;;
73697;SDS011;62004;42.566;23.164;2023-02-16T11:46:25;632.45;;;567.92;;
73697;SDS011;62004;42.566;23.164;2023-02-16T11:48:51;636.17;;;571.85;;
73697;SDS011;62004;42.566;23.164;2023-02-16T11:51:28;627.80;;;564.23;;
73697;SDS011;62004;42.566;23.164;2023-02-16T11:53:58;626.92;;;564.28;;
73697;SDS011;62004;42.566;23.164;2023-02-16T11:56:25;629.85;;;565.78;;
73697;SDS011;62004;42.566;23.164;2023-02-16T12:04:28;629.83;;;565.53;;
73697;SDS011;62004;42.566;23.164;2023-02-16T12:14:19;657.90;;;590.30;;
73697;SDS011;62004;42.566;23.164;2023-02-16T12:30:19;627.95;;;565.53;;
73697;SDS011;62004;42.566;23.164;2023-02-16T12:32:51;626.00;;;562.78;;
73697;SDS011;62004;42.566;23.164;2023-02-16T12:40:27;630.80;;;565.72;;
73697;SDS011;62004;42.566;23.164;2023-02-16T12:43:00;643.30;;;577.10;;
73697;SDS011;62004;42.566;23.164;2023-02-16T12:45:30;640.92;;;573.92;;
73697;SDS011;62004;42.566;23.164;2023-02-16T12:47:56;647.38;;;579.70;;
73697;SDS011;62004;42.566;23.164;2023-02-16T12:50:25;647.40;;;579.75;;
73697;SDS011;62004;42.566;23.164;2023-02-16T12:52:56;636.55;;;570.55;;
73697;SDS011;62004;42.566;23.164;2023-02-16T13:00:44;624.60;;;561.40;;
73697;SDS011;62004;42.566;23.164;2023-02-16T13:03:23;625.75;;;561.75;;
73697;SDS011;62004;42.566;23.164;2023-02-16T13:05:56;624.85;;;560.88;;
73697;SDS011;62004;42.566;23.164;2023-02-16T13:08:27;617.35;;;555.00;;
73697;SDS011;62004;42.566;23.164;2023-02-16T13:11:15;619.17;;;557.00;;
73697;SDS011;62004;42.566;23.164;2023-02-16T13:13:42;620.72;;;558.90;;
73697;SDS011;62004;42.566;23.164;2023-02-16T13:16:30;622.17;;;559.33;;
73697;SDS011;62004;42.566;23.164;2023-02-16T13:18:56;616.05;;;552.92;;
73697;SDS011;62004;42.566;23.164;2023-02-16T13:21:43;619.90;;;557.33;;
73697;SDS011;62004;42.566;23.164;2023-02-16T13:37:16;614.08;;;552.70;;
73697;SDS011;62004;42.566;23.164;2023-02-16T13:44:49;621.35;;;558.85;;
73697;SDS011;62004;42.566;23.164;2023-02-16T13:47:17;627.50;;;563.40;;
73697;SDS011;62004;42.566;23.164;2023-02-16T13:49:45;637.80;;;573.13;;
73697;SDS011;62004;42.566;23.164;2023-02-16T13:54:56;638.05;;;572.63;;
73697;SDS011;62004;42.566;23.164;2023-02-16T13:58:08;630.75;;;566.40;;
73697;SDS011;62004;42.566;23.164;2023-02-16T14:00:23;626.17;;;562.33;;
73697;SDS011;62004;42.566;23.164;2023-02-16T14:02:53;621.35;;;558.30;;
73697;SDS011;62004;42.566;23.164;2023-02-16T14:05:24;625.20;;;561.60;;
73697;SDS011;62004;42.566;23.164;2023-02-16T14:08:14;622.05;;;558.40;;
73697;SDS011;62004;42.566;23.164;2023-02-16T14:13:11;619.92;;;557.13;;
73697;SDS011;62004;42.566;23.164;2023-02-16T14:15:47;622.28;;;558.13;;
73697;SDS011;62004;42.566;23.164;2023-02-16T14:18:52;620.88;;;557.28;;
73697;SDS011;62004;42.566;23.164;2023-02-16T14:21:05;618.03;;;556.15;;
73697;SDS011;62004;42.566;23.164;2023-02-16T14:23:40;617.03;;;554.42;;
73697;SDS011;62004;42.566;23.164;2023-02-16T14:26:06;618.75;;;555.15;;
73697;SDS011;62004;42.566;23.164;2023-02-16T14:30:58;611.53;;;549.45;;
73697;SDS011;62004;42.566;23.164;2023-02-16T14:36:04;621.10;;;556.60;;
73697;SDS011;62004;42.566;23.164;2023-02-16T14:38:35;610.53;;;547.75;;
73697;SDS011;62004;42.566;23.164;2023-02-16T14:41:12;615.70;;;552.00;;
73697;SDS011;62004;42.566;23.164;2023-02-16T14:43:52;610.08;;;548.50;;
73697;SDS011;62004;42.566;23.164;2023-02-16T14:46:27;616.53;;;553.45;;
73697;SDS011;62004;42.566;23.164;2023-02-16T14:56:43;625.88;;;560.25;;
73697;SDS011;62004;42.566;23.164;2023-02-16T15:01:53;612.83;;;550.78;;
73697;SDS011;62004;42.566;23.164;2023-02-16T15:04:29;611.37;;;549.23;;
73697;SDS011;62004;42.566;23.164;2023-02-16T15:06:54;617.55;;;554.92;;
73697;SDS011;62004;42.566;23.164;2023-02-16T15:09:23;624.60;;;560.38;;
73697;SDS011;62004;42.566;23.164;2023-02-16T15:11:50;622.78;;;559.15;;
73697;SDS011;62004;42.566;23.164;2023-02-16T15:14:36;622.50;;;558.38;;
73697;SDS011;62004;42.566;23.164;2023-02-16T15:17:05;632.10;;;566.78;;
73697;SDS011;62004;42.566;23.164;2023-02-16T15:19:31;627.50;;;563.83;;
73697;SDS011;62004;42.566;23.164;2023-02-16T15:27:20;619.75;;;558.88;;
73697;SDS011;62004;42.566;23.164;2023-02-16T15:29:48;621.25;;;560.08;;
73697;SDS011;62004;42.566;23.164;2023-02-16T15:32:25;621.55;;;560.40;;
73697;SDS011;62004;42.566;23.164;2023-02-16T15:34:51;619.10;;;559.47;;
73697;SDS011;62004;42.566;23.164;2023-02-16T15:37:21;620.17;;;560.73;;
73697;SDS011;62004;42.566;23.164;2023-02-16T15:39:48;623.50;;;563.00;;
73697;SDS011;62004;42.566;23.164;2023-02-16T15:44:38;625.30;;;565.53;;
73697;SDS011;62004;42.566;23.164;2023-02-16T15:47:07;628.87;;;567.70;;
73697;SDS011;62004;42.566;23.164;2023-02-16T15:49:32;628.58;;;568.63;;
73697;SDS011;62004;42.566;23.164;2023-02-16T15:51:59;636.50;;;575.33;;
73697;SDS011;62004;42.566;23.164;2023-02-16T15:54:28;630.38;;;570.35;;
73697;SDS011;62004;42.566;23.164;2023-02-16T15:57:09;636.08;;;574.53;;
73697;SDS011;62004;42.566;23.164;2023-02-16T15:59:42;639.30;;;578.92;;
73697;SDS011;62004;42.566;23.164;2023-02-16T16:02:25;645.70;;;584.22;;
73697;SDS011;62004;42.566;23.164;2023-02-16T16:04:55;646.63;;;585.17;;
73697;SDS011;62004;42.566;23.164;2023-02-16T16:07:24;659.22;;;596.63;;
73697;SDS011;62004;42.566;23.164;2023-02-16T16:09:50;654.30;;;593.83;;
73697;SDS011;62004;42.566;23.164;2023-02-16T16:12:16;647.45;;;587.67;;
73697;SDS011;62004;42.566;23.164;2023-02-16T16:14:48;644.65;;;586.38;;